Ana Sayfa
METAR-TAF:

METAR-TAF

Havaalanları :

Fairfield County Airport

Lancaster, Ohio, Amerika Birleşik Devletleri

Enlem: 39-45-26N, Boylam: 082-39-48W, yükseklik: 264 m

Güncel hava durumu gözlemi

Rapor saat 08:20 UTC de 28 dakika önce yapıldı.
Rüzgar kuzeydoğudan 5 kt
Sıcaklık 5°C
Nem 93%
Basınç 1007 hPa
Görüş mesafesi: 8.0 km
500 ft yükseklikte çok bulutlu
Pus

METAR: KLHQ 250820Z AUTO 04005KT 5SM BR OVC005 05/04 A2973 RMK AO2 RAB0758E17 P0000 T00500039

Saat: 03:48 (08:48 UTC)


TAF: eksik

4.000'den fazla havaalanı için hava durumu gözlemleri ve tahminleri (METAR ve TAF raporları).

Kullanılabilir istasyonlar harita üzerinde sarı ve kırmızı noktalarla gösterilir.

İstasyonun adını görmek için fareyi noktanın üzerinde gezdirin.

Sonrasında hava gözlem ve tahminlerini görmek için tıklayın.

Haritayı değiştirmek için: yaklaştırmak için siyah artı işaretli yeşil düğmeye ve uzaklaştırmak için de eksi işaretli düğmeye hızla tıklayın; bitişik haritalar için yeşil okları kullanın.


METAR-TAF: